Time;durP1;ratioP1;P1;durP2;ratioP2;P2;SDS_P1;SDS_P2;PMS_P1;PMS_P2;Temp;Humidity;BMP_temperature;BMP_pressure;BME280_temperature;BME280_humidity;BME280_pressure;Samples;Min_cycle;Max_cycle;Signal;HPM_P1;HPM_P2
2022/01/07 00:00:01;;;;;;;360.20;112.43;;;;;;;7.21;78.03;99529.13;342732;28;917;-74
2022/01/07 00:00:16;;;;;;;359.52;113.30;;;;;;;7.22;78.18;99529.97;341186;28;1196;-74
2022/01/07 00:00:27;;;;;;;357.30;110.70;;;;;;;7.21;78.20;99528.28;341279;29;854;-74
2022/01/07 00:00:39;;;;;;;358.75;110.95;;;;;;;7.22;78.10;99533.44;344000;28;923;-74
2022/01/07 00:00:49;;;;;;;358.52;111.65;;;;;;;7.21;77.95;99526.53;343762;28;940;-74
2022/01/07 00:01:01;;;;;;;358.30;111.63;;;;;;;7.21;78.09;99534.34;343916;28;1343;-74
2022/01/07 00:01:11;;;;;;;359.77;111.40;;;;;;;7.22;78.10;99527.38;342415;28;1312;-74
2022/01/07 00:01:22;;;;;;;359.60;112.53;;;;;;;7.21;77.89;99528.28;345266;28;1219;-74
2022/01/07 00:01:32;;;;;;;360.03;113.10;;;;;;;7.23;77.83;99534.28;342715;28;857;-75
2022/01/07 00:01:42;;;;;;;357.25;112.07;;;;;;;7.23;77.84;99531.69;341273;28;1220;-75
2022/01/07 00:01:53;;;;;;;359.47;114.17;;;;;;;7.24;77.57;99536.00;341233;29;1398;-75
2022/01/07 00:02:03;;;;;;;359.27;113.80;;;;;;;7.22;78.15;99532.59;343830;28;1554;-75
2022/01/07 00:02:14;;;;;;;359.63;114.05;;;;;;;7.24;78.20;99536.00;341239;29;818;-75
2022/01/07 00:02:24;;;;;;;357.97;112.37;;;;;;;7.23;77.89;99532.53;339847;28;1211;-75
2022/01/07 00:02:34;;;;;;;357.45;112.05;;;;;;;7.25;77.99;99537.69;342630;28;1508;-75
2022/01/07 00:02:46;;;;;;;355.53;109.57;;;;;;;7.24;77.87;99536.84;342746;28;876;-75
2022/01/07 00:02:56;;;;;;;355.88;108.63;;;;;;;7.25;78.06;99535.09;343841;28;1587;-75
2022/01/07 00:03:07;;;;;;;358.47;111.73;;;;;;;7.23;78.17;99540.34;343958;28;866;-74
2022/01/07 00:03:18;;;;;;;358.25;112.53;;;;;;;7.24;78.37;99533.41;342522;28;917;-74
2022/01/07 00:03:28;;;;;;;360.73;114.35;;;;;;;7.23;78.02;99539.50;342580;28;842;-74
2022/01/07 00:03:39;;;;;;;359.83;112.53;;;;;;;7.24;77.83;99541.19;342618;28;849;-74
2022/01/07 00:03:50;;;;;;;360.03;112.60;;;;;;;7.24;77.89;99536.00;345268;28;979;-74
2022/01/07 00:04:00;;;;;;;358.13;109.85;;;;;;;7.24;78.25;99536.00;344047;28;888;-74
2022/01/07 00:04:11;;;;;;;358.50;110.75;;;;;;;7.24;78.39;99538.59;343916;28;886;-74
2022/01/07 00:04:21;;;;;;;358.87;110.33;;;;;;;7.24;77.70;99538.59;342582;28;897;-74
2022/01/07 00:04:35;;;;;;;357.17;111.63;;;;;;;7.25;78.34;99542.91;339918;29;1647;-74
2022/01/07 00:04:46;;;;;;;354.77;110.70;;;;;;;7.24;77.82;99541.19;342580;28;1333;-74
2022/01/07 00:04:56;;;;;;;355.33;112.03;;;;;;;7.24;78.25;99549.00;341321;29;914;-74
2022/01/07 00:05:07;;;;;;;357.38;111.43;;;;;;;7.23;77.73;99545.56;342635;28;822;-74
2022/01/07 00:05:17;;;;;;;357.33;110.72;;;;;;;7.22;77.55;99537.78;342573;28;1267;-74
2022/01/07 00:05:28;;;;;;;357.07;109.03;;;;;;;7.23;78.18;99547.31;342556;28;937;-74
2022/01/07 00:05:38;;;;;;;360.23;112.07;;;;;;;7.25;77.98;99548.13;342716;28;1260;-74
2022/01/07 00:05:49;;;;;;;361.87;112.93;;;;;;;7.26;77.94;99544.63;345323;28;971;-74
2022/01/07 00:05:59;;;;;;;362.13;113.57;;;;;;;7.25;78.08;99548.13;342817;28;1599;-76
2022/01/07 00:06:10;;;;;;;357.90;109.67;;;;;;;7.26;78.18;99547.22;342809;28;1075;-75
2022/01/07 00:06:20;;;;;;;356.33;108.88;;;;;;;7.25;77.92;99542.91;341164;29;1856;-75
2022/01/07 00:06:30;;;;;;;358.53;109.87;;;;;;;7.26;77.65;99547.22;343741;28;1932;-75
2022/01/07 00:06:41;;;;;;;357.90;111.82;;;;;;;7.26;77.62;99544.63;344041;28;972;-75
2022/01/07 00:06:51;;;;;;;357.87;109.60;;;;;;;7.26;77.91;99550.69;341285;29;939;-75
2022/01/07 00:07:03;;;;;;;357.13;110.50;;;;;;;7.24;77.58;99547.25;342622;28;872;-75
2022/01/07 00:07:14;;;;;;;357.92;108.66;;;;;;;7.24;77.61;99546.41;341286;29;1530;-75
2022/01/07 00:07:24;;;;;;;359.13;106.97;;;;;;;7.25;77.80;99548.13;342763;28;944;-75
2022/01/07 00:07:35;;;;;;;357.92;105.65;;;;;;;7.24;77.64;99544.66;341247;28;1229;-75
2022/01/07 00:07:45;;;;;;;356.67;106.30;;;;;;;7.24;77.95;99549.88;344850;28;1870;-75
2022/01/07 00:07:55;;;;;;;354.98;106.03;;;;;;;7.26;77.93;99544.63;343859;28;1724;-75
2022/01/07 00:08:06;;;;;;;353.70;104.93;;;;;;;7.25;77.96;99541.16;343829;28;1114;-75
2022/01/07 00:08:16;;;;;;;354.50;106.27;;;;;;;7.25;77.88;99543.75;345293;28;802;-75
2022/01/07 00:08:27;;;;;;;355.40;109.67;;;;;;;7.25;78.00;99551.56;341169;29;794;-75
2022/01/07 00:08:38;;;;;;;357.73;110.70;;;;;;;7.25;78.00;99548.97;343945;28;987;-75
2022/01/07 00:08:48;;;;;;;358.70;109.53;;;;;;;7.23;77.74;99545.56;341263;29;996;-75
2022/01/07 00:08:58;;;;;;;359.07;109.17;;;;;;;7.24;77.89;99549.00;338653;29;1016;-75
2022/01/07 00:09:09;;;;;;;358.30;110.30;;;;;;;7.23;77.85;99542.09;343863;28;1319;-75
2022/01/07 00:09:19;;;;;;;358.63;109.80;;;;;;;7.23;77.75;99540.34;341405;29;996;-75
2022/01/07 00:09:30;;;;;;;358.88;106.65;;;;;;;7.22;77.79;99550.81;346181;28;1349;-75
2022/01/07 00:09:40;;;;;;;358.10;105.23;;;;;;;7.23;78.21;99552.50;341136;28;1422;-75
2022/01/07 00:09:50;;;;;;;357.95;105.65;;;;;;;7.23;77.57;99555.13;342653;28;877;-75
2022/01/07 00:10:01;;;;;;;358.53;109.13;;;;;;;7.23;77.53;99555.13;342684;28;939;-75
2022/01/07 00:10:13;;;;;;;357.90;109.78;;;;;;;7.23;77.55;99539.50;341228;29;867;-75
2022/01/07 00:10:23;;;;;;;357.10;111.28;;;;;;;7.22;77.44;99551.66;341279;28;1383;-75
2022/01/07 00:10:34;;;;;;;356.77;111.47;;;;;;;7.21;77.79;99549.94;342426;28;1254;-75
2022/01/07 00:10:44;;;;;;;354.83;108.78;;;;;;;7.19;77.52;99551.75;341159;28;1333;-75
2022/01/07 00:10:55;;;;;;;355.83;107.43;;;;;;;7.19;77.13;99548.28;341197;28;1208;-75
2022/01/07 00:11:05;;;;;;;354.08;105.20;;;;;;;7.18;77.23;99551.78;341456;28;1619;-75
2022/01/07 00:11:16;;;;;;;352.77;105.32;;;;;;;7.19;77.82;99548.28;342580;28;1125;-75
2022/01/07 00:11:26;;;;;;;352.73;105.03;;;;;;;7.18;77.24;99547.44;342594;28;1368;-75
2022/01/07 00:11:37;;;;;;;352.90;105.80;;;;;;;7.19;77.77;99548.28;343820;28;1421;-75
2022/01/07 00:11:47;;;;;;;352.93;106.63;;;;;;;7.20;77.34;99550.00;343893;28;847;-75
2022/01/07 00:11:58;;;;;;;353.20;108.22;;;;;;;7.21;77.56;99551.69;343948;28;1200;-75
2022/01/07 00:12:08;;;;;;;353.60;108.27;;;;;;;7.23;77.36;99555.13;341076;28;1193;-75
2022/01/07 00:12:21;;;;;;;355.33;108.90;;;;;;;7.23;77.53;99544.69;341158;29;1328;-74
2022/01/07 00:12:32;;;;;;;355.73;107.63;;;;;;;7.23;77.12;99544.69;342519;28;1889;-74
2022/01/07 00:12:42;;;;;;;357.47;109.47;;;;;;;7.21;77.32;99556.91;342618;28;1465;-74
2022/01/07 00:12:53;;;;;;;354.73;108.55;;;;;;;7.22;77.33;99553.41;342446;28;1421;-74
2022/01/07 00:13:03;;;;;;;354.38;108.10;;;;;;;7.22;77.20;99556.00;341318;28;1361;-74
2022/01/07 00:13:14;;;;;;;353.17;106.20;;;;;;;7.21;77.04;99554.31;343954;28;819;-74
2022/01/07 00:13:24;;;;;;;353.70;106.68;;;;;;;7.21;77.33;99556.91;341124;28;1484;-74
2022/01/07 00:13:35;;;;;;;354.33;106.17;;;;;;;7.20;77.47;99555.19;341287;29;872;-74
2022/01/07 00:13:45;;;;;;;358.58;106.43;;;;;;;7.19;77.64;99553.50;340047;29;897;-74
2022/01/07 00:13:55;;;;;;;358.27;107.00;;;;;;;7.21;77.47;99552.56;342610;28;988;-74
2022/01/07 00:14:06;;;;;;;358.30;106.18;;;;;;;7.21;77.16;99551.69;339840;28;1311;-74
2022/01/07 00:14:16;;;;;;;355.67;106.60;;;;;;;7.22;77.52;99549.06;338561;29;1291;-75
2022/01/07 00:14:27;;;;;;;355.00;107.20;;;;;;;7.23;77.63;99555.13;338955;29;1304;-75
2022/01/07 00:14:37;;;;;;;354.93;107.57;;;;;;;7.21;77.03;99551.69;342503;28;1571;-74
2022/01/07 00:14:48;;;;;;;353.80;107.03;;;;;;;7.22;77.29;99551.66;342763;28;1193;-75
2022/01/07 00:14:58;;;;;;;356.05;106.55;;;;;;;7.22;77.09;99558.59;342486;28;1201;-75
2022/01/07 00:15:09;;;;;;;355.03;107.67;;;;;;;7.18;77.12;99552.63;344021;28;1264;-75
2022/01/07 00:15:19;;;;;;;354.88;107.47;;;;;;;7.18;76.87;99546.56;343821;28;1277;-75
2022/01/07 00:15:30;;;;;;;352.67;107.23;;;;;;;7.14;77.04;99553.63;343933;28;1318;-75
2022/01/07 00:15:40;;;;;;;352.75;106.03;;;;;;;7.17;77.23;99555.28;346527;28;1900;-75
2022/01/07 00:15:53;;;;;;;351.60;105.70;;;;;;;7.17;77.06;99555.28;343488;28;1230;-74
2022/01/07 00:16:04;;;;;;;353.40;106.75;;;;;;;7.17;77.28;99552.69;341028;29;1289;-74
2022/01/07 00:16:16;;;;;;;353.90;106.82;;;;;;;7.18;77.14;99557.00;342377;28;1312;-74
2022/01/07 00:16:26;;;;;;;352.75;105.82;;;;;;;7.19;77.46;99563.91;343902;28;1716;-74
2022/01/07 00:16:37;;;;;;;352.02;105.25;;;;;;;7.19;77.25;99559.53;341155;29;1458;-74
2022/01/07 00:16:48;;;;;;;352.27;106.50;;;;;;;7.19;77.25;99558.69;341270;29;931;-74
2022/01/07 00:16:58;;;;;;;353.17;107.90;;;;;;;7.19;77.16;99558.69;342506;28;1314;-75
2022/01/07 00:17:08;;;;;;;355.83;110.57;;;;;;;7.18;76.94;99557.84;342538;28;870;-74
2022/01/07 00:17:19;;;;;;;353.73;108.33;;;;;;;7.16;77.19;99558.78;341332;29;991;-74
2022/01/07 00:17:29;;;;;;;353.27;107.90;;;;;;;7.15;76.96;99557.06;343805;28;1205;-74
2022/01/07 00:17:40;;;;;;;349.77;104.27;;;;;;;7.15;77.05;99563.13;341206;29;1336;-74
2022/01/07 00:17:50;;;;;;;352.33;104.47;;;;;;;7.15;77.14;99554.47;341254;29;963;-74
2022/01/07 00:18:00;;;;;;;353.27;103.80;;;;;;;7.14;76.86;99565.78;341274;29;890;-74
2022/01/07 00:18:11;;;;;;;354.67;104.90;;;;;;;7.13;77.08;99564.06;341083;29;1302;-74
2022/01/07 00:18:21;;;;;;;354.08;105.80;;;;;;;7.12;76.91;99557.16;343166;28;1841;-74
2022/01/07 00:18:32;;;;;;;353.55;107.07;;;;;;;7.13;76.89;99558.88;341233;29;773;-74
2022/01/07 00:18:44;;;;;;;351.37;105.50;;;;;;;7.14;76.97;99563.16;342568;28;1344;-74
2022/01/07 00:18:56;;;;;;;351.05;105.22;;;;;;;7.13;76.81;99556.25;342572;28;862;-74
2022/01/07 00:19:06;;;;;;;350.80;102.47;;;;;;;7.14;77.46;99561.41;342597;28;904;-74
2022/01/07 00:19:18;;;;;;;352.27;103.00;;;;;;;7.15;77.23;99559.66;342585;28;977;-74
2022/01/07 00:19:28;;;;;;;353.85;104.55;;;;;;;7.14;76.92;99566.63;339130;29;1135;-74
2022/01/07 00:19:38;;;;;;;354.48;105.75;;;;;;;7.16;77.29;99563.97;342493;28;954;-74
2022/01/07 00:19:49;;;;;;;351.07;103.40;;;;;;;7.17;77.05;99563.09;343961;28;1331;-74
2022/01/07 00:19:59;;;;;;;349.23;102.57;;;;;;;7.17;77.08;99566.53;342827;28;1278;-74
2022/01/07 00:20:11;;;;;;;348.77;102.87;;;;;;;7.13;77.06;99564.06;345174;28;1348;-75
2022/01/07 00:20:21;;;;;;;351.70;104.40;;;;;;;7.13;77.21;99558.88;346659;28;1275;-75
2022/01/07 00:20:32;;;;;;;351.17;104.20;;;;;;;7.13;77.16;99561.47;343948;28;1020;-74
2022/01/07 00:20:42;;;;;;;351.70;103.70;;;;;;;7.13;76.76;99559.72;342548;28;775;-74
2022/01/07 00:20:52;;;;;;;352.20;103.70;;;;;;;7.13;77.24;99557.13;341279;28;1331;-74
2022/01/07 00:21:03;;;;;;;351.63;103.22;;;;;;;7.11;76.94;99566.72;341462;29;1285;-74
2022/01/07 00:21:13;;;;;;;351.97;105.07;;;;;;;7.10;76.82;99564.16;341952;28;1197;-74
2022/01/07 00:21:24;;;;;;;352.08;104.70;;;;;;;7.09;77.58;99560.69;342043;28;1279;-74
2022/01/07 00:21:34;;;;;;;354.00;107.47;;;;;;;7.09;77.14;99562.44;342013;28;1229;-73
2022/01/07 00:21:44;;;;;;;353.37;105.70;;;;;;;7.09;76.94;99567.66;344516;28;842;-73
2022/01/07 00:21:55;;;;;;;352.45;106.47;;;;;;;7.08;76.85;99561.59;341597;28;1110;-73
2022/01/07 00:22:05;;;;;;;351.57;104.03;;;;;;;7.09;77.09;99557.25;340485;29;1279;-73
2022/01/07 00:22:16;;;;;;;351.30;101.90;;;;;;;7.09;77.26;99568.50;340415;29;1378;-73
2022/01/07 00:22:26;;;;;;;352.10;101.17;;;;;;;7.10;77.36;99564.16;340496;29;1325;-73
2022/01/07 00:22:38;;;;;;;351.70;101.82;;;;;;;7.09;76.97;99560.69;341821;29;1024;-73
2022/01/07 00:22:48;;;;;;;350.95;101.22;;;;;;;7.09;77.15;99557.25;342532;28;1043;-74
2022/01/07 00:22:58;;;;;;;351.35;101.70;;;;;;;7.09;76.87;99559.84;342119;29;1072;-74
2022/01/07 00:23:09;;;;;;;351.63;102.57;;;;;;;7.09;76.69;99565.03;342344;28;1502;-74
2022/01/07 00:23:20;;;;;;;353.70;106.10;;;;;;;7.09;76.90;99559.84;341610;28;1148;-74
2022/01/07 00:23:30;;;;;;;353.17;105.35;;;;;;;7.08;77.12;99560.75;340550;29;775;-74
2022/01/07 00:23:41;;;;;;;353.30;103.53;;;;;;;7.08;77.28;99565.94;343025;28;1309;-73
2022/01/07 00:23:51;;;;;;;352.63;102.10;;;;;;;7.07;76.83;99566.84;344298;28;1644;-74
2022/01/07 00:24:02;;;;;;;350.40;100.13;;;;;;;7.08;77.02;99560.75;344224;28;1180;-74
2022/01/07 00:24:12;;;;;;;349.35;101.90;;;;;;;7.09;76.96;99567.66;343087;28;802;-74
2022/01/07 00:24:22;;;;;;;350.20;102.23;;;;;;;7.09;77.19;99562.44;344356;28;1257;-74
2022/01/07 00:24:33;;;;;;;352.13;103.63;;;;;;;7.10;77.41;99564.16;344295;28;1366;-74
2022/01/07 00:24:43;;;;;;;351.47;102.43;;;;;;;7.10;77.38;99564.16;341631;29;961;-74
2022/01/07 00:24:53;;;;;;;350.65;102.60;;;;;;;7.08;77.18;99561.59;341717;28;1268;-74
2022/01/07 00:25:04;;;;;;;352.17;103.80;;;;;;;7.09;77.12;99562.44;342974;28;881;-74
2022/01/07 00:25:15;;;;;;;354.10;105.40;;;;;;;7.07;76.99;99554.69;344552;28;838;-74
2022/01/07 00:25:25;;;;;;;352.08;103.22;;;;;;;7.09;77.06;99560.69;341750;28;1350;-74
2022/01/07 00:25:36;;;;;;;350.47;102.97;;;;;;;7.09;77.20;99559.84;342879;28;1200;-74
2022/01/07 00:25:46;;;;;;;350.80;101.93;;;;;;;7.10;77.06;99565.00;344427;28;910;-74
2022/01/07 00:25:57;;;;;;;352.03;104.47;;;;;;;7.11;77.20;99571.06;344180;28;1082;-74
2022/01/07 00:26:07;;;;;;;352.95;104.75;;;;;;;7.11;77.01;99564.09;341549;28;1199;-74
2022/01/07 00:26:17;;;;;;;351.23;103.90;;;;;;;7.11;76.92;99569.31;338779;29;1562;-74
2022/01/07 00:26:28;;;;;;;351.25;101.75;;;;;;;7.10;76.90;99569.34;341290;29;904;-74
2022/01/07 00:26:38;;;;;;;350.83;101.37;;;;;;;7.12;76.71;99564.97;342643;28;926;-74
2022/01/07 00:26:48;;;;;;;352.97;102.47;;;;;;;7.12;77.16;99567.56;341323;29;873;-74
2022/01/07 00:26:59;;;;;;;352.58;103.15;;;;;;;7.10;77.01;99564.16;342468;28;1501;-74
2022/01/07 00:27:09;;;;;;;352.90;103.33;;;;;;;7.11;77.12;99565.84;339828;29;1202;-74
2022/01/07 00:27:20;;;;;;;354.95;102.90;;;;;;;7.10;77.09;99570.22;344055;28;953;-74
2022/01/07 00:27:30;;;;;;;353.07;102.50;;;;;;;7.10;76.86;99571.97;341143;29;1283;-74
2022/01/07 00:27:40;;;;;;;350.77;102.13;;;;;;;7.10;77.21;99558.94;339866;28;1205;-74
2022/01/07 00:27:51;;;;;;;348.10;101.53;;;;;;;7.10;77.12;99569.34;344070;28;900;-74
2022/01/07 00:28:01;;;;;;;350.33;102.95;;;;;;;7.09;76.79;99570.25;344096;28;853;-74
2022/01/07 00:28:12;;;;;;;351.77;103.93;;;;;;;7.09;76.82;99559.84;343988;28;1228;-74
2022/01/07 00:28:22;;;;;;;353.70;105.55;;;;;;;7.08;76.93;99566.78;338612;29;870;-74
2022/01/07 00:28:32;;;;;;;353.40;106.93;;;;;;;7.06;76.88;99565.13;339971;29;909;-74
2022/01/07 00:28:43;;;;;;;352.63;106.68;;;;;;;7.03;76.99;99570.41;345252;28;1044;-74
2022/01/07 00:28:53;;;;;;;350.97;106.43;;;;;;;7.01;77.08;99573.91;342714;28;956;-75
2022/01/07 00:29:03;;;;;;;349.93;102.63;;;;;;;7.00;77.37;99574.81;343869;28;1336;-75
2022/01/07 00:29:14;;;;;;;351.08;101.55;;;;;;;7.01;76.92;99571.31;342513;28;1315;-75
2022/01/07 00:29:24;;;;;;;350.67;99.07;;;;;;;7.00;77.44;99569.59;345124;28;1942;-74
2022/01/07 00:29:35;;;;;;;352.17;101.82;;;;;;;6.99;77.11;99567.91;341128;29;1130;-74
2022/01/07 00:29:45;;;;;;;351.27;103.50;;;;;;;7.00;77.31;99577.41;342618;28;890;-74
2022/01/07 00:29:55;;;;;;;350.63;103.68;;;;;;;7.01;77.34;99573.06;342550;28;1355;-74
2022/01/07 00:30:07;;;;;;;349.00;101.77;;;;;;;7.04;77.00;99575.56;338517;29;1275;-74
2022/01/07 00:30:18;;;;;;;349.65;101.13;;;;;;;7.04;77.23;99565.16;342489;28;889;-74
2022/01/07 00:30:28;;;;;;;349.02;102.13;;;;;;;7.05;77.41;99577.28;341211;29;873;-74
2022/01/07 00:30:39;;;;;;;350.40;102.77;;;;;;;7.04;76.87;99572.13;344004;28;1196;-74
2022/01/07 00:30:49;;;;;;;351.58;104.28;;;;;;;7.03;76.88;99573.00;341247;28;790;-74
2022/01/07 00:30:59;;;;;;;352.67;105.40;;;;;;;7.03;77.19;99573.00;341239;29;1004;-74
2022/01/07 00:31:10;;;;;;;352.83;105.07;;;;;;;7.04;77.54;99574.72;341035;29;1245;-74
2022/01/07 00:31:20;;;;;;;351.77;103.07;;;;;;;7.01;77.35;99576.50;342727;28;874;-74
2022/01/07 00:31:31;;;;;;;351.87;103.00;;;;;;;7.01;77.04;99576.50;342513;28;1411;-74
2022/01/07 00:31:41;;;;;;;351.00;103.65;;;;;;;7.03;77.36;99578.22;341280;29;850;-74
2022/01/07 00:31:51;;;;;;;351.33;105.70;;;;;;;7.02;77.00;99577.38;343882;28;1292;-74
2022/01/07 00:32:02;;;;;;;351.52;104.55;;;;;;;7.01;77.49;99580.88;346599;28;974;-74
2022/01/07 00:32:12;;;;;;;351.27;104.23;;;;;;;7.00;77.19;99573.94;342447;28;1172;-74
2022/01/07 00:32:23;;;;;;;352.07;103.30;;;;;;;6.99;77.46;99578.28;342645;28;945;-74
2022/01/07 00:32:33;;;;;;;351.37;103.40;;;;;;;6.99;77.45;99573.09;343957;28;1097;-74
2022/01/07 00:32:44;;;;;;;351.42;102.93;;;;;;;7.01;77.06;99579.13;345084;28;1535;-74
2022/01/07 00:32:54;;;;;;;350.90;102.07;;;;;;;7.00;76.51;99577.41;341199;29;960;-74
2022/01/07 00:33:05;;;;;;;350.00;101.20;;;;;;;7.03;77.03;99578.22;341146;28;1384;-74
2022/01/07 00:33:15;;;;;;;349.33;101.60;;;;;;;7.00;76.95;99579.16;342558;28;1315;-74
2022/01/07 00:33:26;;;;;;;349.27;103.13;;;;;;;6.95;76.99;99575.81;343882;28;848;-74
2022/01/07 00:33:36;;;;;;;349.77;102.18;;;;;;;6.95;77.09;99581.88;343860;28;1370;-75
2022/01/07 00:33:47;;;;;;;350.23;101.87;;;;;;;6.96;77.16;99578.38;338510;29;1279;-75
2022/01/07 00:33:57;;;;;;;350.00;102.32;;;;;;;6.96;77.17;99583.59;341214;29;1024;-75
2022/01/07 00:34:07;;;;;;;349.73;102.83;;;;;;;6.98;76.99;99581.78;344015;28;759;-74
2022/01/07 00:34:18;;;;;;;349.60;102.80;;;;;;;6.99;76.99;99582.66;341105;28;1675;-74
2022/01/07 00:34:28;;;;;;;349.50;101.43;;;;;;;6.98;77.52;99581.78;342594;28;941;-74
2022/01/07 00:34:39;;;;;;;350.23;102.28;;;;;;;7.00;76.86;99580.00;338606;29;1011;-74
2022/01/07 00:34:49;;;;;;;350.17;104.07;;;;;;;6.99;76.92;99577.44;342572;28;1212;-74
2022/01/07 00:35:00;;;;;;;351.63;105.57;;;;;;;6.99;77.10;99583.50;343874;28;891;-74
2022/01/07 00:35:10;;;;;;;349.95;103.55;;;;;;;6.99;76.98;99580.91;342604;28;885;-74
2022/01/07 00:35:21;;;;;;;349.43;102.53;;;;;;;6.99;77.43;99577.44;341249;29;850;-74
2022/01/07 00:35:31;;;;;;;347.45;100.13;;;;;;;6.98;76.96;99581.78;338564;29;1315;-75
2022/01/07 00:35:42;;;;;;;349.70;100.97;;;;;;;6.98;77.07;99581.78;344001;28;1315;-74
2022/01/07 00:35:52;;;;;;;352.20;103.47;;;;;;;7.01;77.33;99580.88;343827;28;1910;-73
2022/01/07 00:36:03;;;;;;;355.20;105.57;;;;;;;7.01;77.07;99586.91;341160;28;1295;-73
2022/01/07 00:36:14;;;;;;;355.42;104.40;;;;;;;7.00;77.10;99579.16;339843;29;881;-73
2022/01/07 00:36:24;;;;;;;353.08;102.22;;;;;;;6.97;76.95;99574.88;342416;28;1101;-73
2022/01/07 00:36:34;;;;;;;350.77;100.90;;;;;;;6.95;77.43;99576.66;343975;28;909;-73
2022/01/07 00:36:45;;;;;;;349.58;100.93;;;;;;;6.94;77.19;99581.91;342767;28;833;-73
2022/01/07 00:36:55;;;;;;;352.20;101.60;;;;;;;6.94;77.36;99580.16;342054;28;1912;-73
2022/01/07 00:37:05;;;;;;;354.10;101.40;;;;;;;6.96;76.97;99585.34;339764;28;2301;-74
2022/01/07 00:37:16;;;;;;;354.23;102.13;;;;;;;6.95;77.22;99576.66;342505;28;1719;-74
2022/01/07 00:37:26;;;;;;;352.90;101.87;;;;;;;6.96;76.92;99583.59;345390;28;935;-74
2022/01/07 00:37:37;;;;;;;349.35;101.45;;;;;;;6.95;77.52;99579.28;345128;28;1481;-74
2022/01/07 00:37:48;;;;;;;349.97;101.70;;;;;;;6.96;77.12;99583.59;341326;29;818;-74
2022/01/07 00:37:58;;;;;;;350.08;101.15;;;;;;;6.96;76.93;99583.59;339834;29;874;-74
2022/01/07 00:38:09;;;;;;;351.07;101.83;;;;;;;6.95;77.16;99587.06;346462;28;1164;-74
2022/01/07 00:38:19;;;;;;;351.35;102.10;;;;;;;6.96;77.42;99582.72;342583;28;929;-74
2022/01/07 00:38:30;;;;;;;351.50;102.83;;;;;;;6.95;76.71;99587.06;341061;28;1351;-74
2022/01/07 00:38:40;;;;;;;353.58;104.78;;;;;;;6.93;77.11;99581.06;339849;29;1229;-74
2022/01/07 00:38:51;;;;;;;357.23;105.67;;;;;;;6.93;77.37;99583.66;341354;29;707;-74
2022/01/07 00:39:01;;;;;;;358.80;104.10;;;;;;;6.93;76.88;99588.03;341945;28;1384;-74
2022/01/07 00:39:12;;;;;;;358.33;103.53;;;;;;;6.91;77.18;99595.03;342604;28;1357;-74
2022/01/07 00:39:22;;;;;;;353.63;104.28;;;;;;;6.90;76.99;99594.19;340266;28;1331;-74
2022/01/07 00:39:32;;;;;;;352.43;106.10;;;;;;;6.89;77.65;99587.28;343804;28;1314;-74
2022/01/07 00:39:45;;;;;;;350.35;105.05;;;;;;;6.91;77.09;99593.28;342526;28;1009;-74
2022/01/07 00:39:56;;;;;;;350.48;101.72;;;;;;;6.90;77.60;99594.19;342548;28;850;-75
2022/01/07 00:40:08;;;;;;;351.83;103.37;;;;;;;6.92;77.42;99588.94;339824;28;1303;-74
2022/01/07 00:40:20;;;;;;;355.38;105.75;;;;;;;6.90;77.29;99581.16;341203;29;877;-74
2022/01/07 00:40:30;;;;;;;356.73;104.45;;;;;;;6.92;77.02;99587.19;343953;28;1017;-74
2022/01/07 00:40:41;;;;;;;357.80;102.90;;;;;;;6.92;76.93;99595.00;345170;28;1290;-75
2022/01/07 00:40:51;;;;;;;356.88;99.53;;;;;;;6.93;77.35;99585.44;342436;28;1303;-74
2022/01/07 00:41:03;;;;;;;355.93;98.60;;;;;;;6.92;77.06;99586.34;338560;29;1624;-74
2022/01/07 00:41:13;;;;;;;353.20;97.55;;;;;;;6.92;76.93;99591.53;341260;29;953;-75
2022/01/07 00:41:24;;;;;;;352.33;99.53;;;;;;;6.88;77.24;99588.16;342514;28;1345;-75
2022/01/07 00:41:34;;;;;;;353.27;99.88;;;;;;;6.88;77.35;99588.16;342570;28;1338;-75
2022/01/07 00:41:45;;;;;;;354.07;100.03;;;;;;;6.88;77.30;99590.75;342599;28;1014;-75
2022/01/07 00:41:55;;;;;;;353.98;100.53;;;;;;;6.91;77.39;99584.63;343958;28;865;-75
2022/01/07 00:42:06;;;;;;;351.77;100.18;;;;;;;6.90;77.11;99586.38;343867;28;1219;-75
2022/01/07 00:42:16;;;;;;;354.67;102.43;;;;;;;6.89;77.35;99587.28;341064;28;1164;-75
2022/01/07 00:42:27;;;;;;;355.58;102.13;;;;;;;6.91;77.63;99592.44;343831;28;1227;-75
2022/01/07 00:42:37;;;;;;;354.03;101.83;;;;;;;6.91;77.16;99595.88;342561;28;831;-75
2022/01/07 00:42:50;;;;;;;350.42;99.60;;;;;;;6.91;77.36;99589.84;341204;29;961;-75
2022/01/07 00:43:00;;;;;;;347.17;99.43;;;;;;;6.91;76.86;99590.69;343853;28;1551;-75
2022/01/07 00:43:11;;;;;;;346.07;98.23;;;;;;;6.91;77.14;99595.88;343974;28;857;-75
2022/01/07 00:43:21;;;;;;;348.67;99.50;;;;;;;6.92;76.94;99595.00;345247;28;919;-75
2022/01/07 00:43:32;;;;;;;352.27;100.97;;;;;;;6.91;77.52;99585.47;342544;28;1685;-75
2022/01/07 00:43:42;;;;;;;353.38;100.13;;;;;;;6.92;77.70;99596.75;342227;28;2097;-74
2022/01/07 00:43:53;;;;;;;350.30;97.43;;;;;;;6.90;77.10;99583.78;341287;29;946;-74
2022/01/07 00:44:04;;;;;;;351.48;97.60;;;;;;;6.91;77.32;99595.88;341246;28;1222;-74
2022/01/07 00:44:14;;;;;;;351.55;100.05;;;;;;;6.89;77.08;99591.63;343715;28;1243;-74
2022/01/07 00:44:24;;;;;;;351.03;100.83;;;;;;;6.89;77.14;99596.81;342205;28;1380;-74
2022/01/07 00:44:35;;;;;;;352.20;100.20;;;;;;;6.88;77.13;99595.97;342492;28;1131;-74
2022/01/07 00:44:45;;;;;;;351.47;99.73;;;;;;;6.87;77.00;99588.19;337367;29;1286;-74
2022/01/07 00:44:55;;;;;;;350.52;99.28;;;;;;;6.85;77.38;99593.44;341155;29;855;-74
2022/01/07 00:45:06;;;;;;;348.23;98.77;;;;;;;6.83;76.95;99589.19;341168;28;1197;-74
2022/01/07 00:45:21;;;;;;;351.80;101.20;;;;;;;6.81;77.18;99580.56;342587;28;1136;-74
2022/01/07 00:45:32;;;;;;;353.90;102.60;;;;;;;6.78;77.35;99589.28;342433;28;1114;-74
2022/01/07 00:45:42;;;;;;;351.23;99.50;;;;;;;6.78;77.38;99594.50;342423;28;1212;-74
2022/01/07 00:45:53;;;;;;;351.07;98.80;;;;;;;6.78;77.55;99594.50;341099;28;1193;-74
2022/01/07 00:46:03;;;;;;;350.90;99.32;;;;;;;6.79;77.34;99595.34;341992;28;1901;-74
2022/01/07 00:46:13;;;;;;;351.87;100.20;;;;;;;6.77;77.45;99582.38;342433;28;1322;-74
2022/01/07 00:46:24;;;;;;;349.40;97.20;;;;;;;6.79;77.85;99596.19;342503;28;934;-74
2022/01/07 00:46:34;;;;;;;347.80;96.73;;;;;;;6.77;77.77;99591.94;341369;29;983;-74
2022/01/07 00:46:45;;;;;;;346.97;97.03;;;;;;;6.77;77.72;99598.00;341185;29;1292;-75
2022/01/07 00:46:55;;;;;;;348.63;98.47;;;;;;;6.78;77.62;99598.84;343950;28;905;-75
2022/01/07 00:47:05;;;;;;;347.53;99.20;;;;;;;6.80;77.31;99591.84;342572;28;882;-75
2022/01/07 00:47:16;;;;;;;348.92;98.47;;;;;;;6.79;77.42;99591.00;341304;29;865;-75
2022/01/07 00:47:27;;;;;;;348.58;98.40;;;;;;;6.79;77.78;99592.75;339783;28;1359;-75
2022/01/07 00:47:37;;;;;;;350.67;98.80;;;;;;;6.80;77.34;99591.84;338623;29;1748;-75
2022/01/07 00:47:48;;;;;;;351.38;100.65;;;;;;;6.74;77.41;99587.66;342623;28;903;-75
2022/01/07 00:47:58;;;;;;;351.77;101.00;;;;;;;6.78;77.26;99591.91;345186;28;1282;-75
2022/01/07 00:48:08;;;;;;;350.58;101.32;;;;;;;6.79;77.32;99595.34;339681;29;1226;-75
2022/01/07 00:48:19;;;;;;;348.37;100.90;;;;;;;6.77;77.39;99592.78;341227;29;1676;-74
2022/01/07 00:48:29;;;;;;;348.25;100.85;;;;;;;6.77;77.30;99590.19;343842;28;1237;-74
2022/01/07 00:48:40;;;;;;;348.27;99.83;;;;;;;6.78;77.66;99593.63;343895;28;1188;-74
2022/01/07 00:48:50;;;;;;;347.83;99.07;;;;;;;6.79;77.37;99595.34;342662;28;959;-74
2022/01/07 00:49:00;;;;;;;348.30;100.13;;;;;;;6.80;77.80;99599.66;341225;29;960;-74
2022/01/07 00:49:12;;;;;;;350.05;99.80;;;;;;;6.79;77.54;99595.34;341115;29;1241;-74
2022/01/07 00:49:22;;;;;;;349.02;99.20;;;;;;;6.79;77.59;99598.81;341262;28;1535;-74
2022/01/07 00:49:33;;;;;;;349.00;99.13;;;;;;;6.80;77.72;99597.06;343946;28;940;-74